createdAt,value
2022-11-05T00:02:30.057Z,98756.53
2022-11-05T00:05:22.189Z,98758.53
2022-11-05T00:08:15.571Z,98765.63
2022-11-05T00:10:47.326Z,98761.16
2022-11-05T00:13:40.683Z,98766.44
2022-11-05T00:16:30.565Z,98765.78
2022-11-05T00:19:09.007Z,98762.50
2022-11-05T00:21:59.229Z,98756.41
2022-11-05T00:24:49.151Z,98755.56
2022-11-05T00:27:20.743Z,98758.69
2022-11-05T00:29:52.385Z,98762.31
2022-11-05T00:32:24.020Z,98763.59
2022-11-05T00:34:55.667Z,98757.34
2022-11-05T00:37:28.271Z,98766.06
2022-11-05T00:39:59.853Z,98765.09
2022-11-05T00:42:51.291Z,98766.38
2022-11-05T00:45:22.931Z,98769.81
2022-11-05T00:48:13.197Z,98784.66
2022-11-05T00:50:44.761Z,98781.66
2022-11-05T00:53:16.450Z,98794.50
2022-11-05T00:55:51.012Z,98804.88
2022-11-05T00:58:23.433Z,98800.59
2022-11-05T01:00:57.519Z,98805.22
2022-11-05T01:03:32.628Z,98798.94
2022-11-05T01:06:08.894Z,98806.50
2022-11-05T01:08:42.995Z,98808.97
2022-11-05T01:11:35.164Z,98821.31
2022-11-05T01:14:09.959Z,98815.22
2022-11-05T01:16:42.578Z,98809.94
2022-11-05T01:19:14.255Z,98815.09
2022-11-05T01:21:45.820Z,98816.44
2022-11-05T01:24:17.442Z,98811.34
2022-11-05T01:26:49.005Z,98819.44
2022-11-05T01:29:22.161Z,98816.81
2022-11-05T01:31:53.711Z,98812.34
2022-11-05T01:34:25.297Z,98815.16
2022-11-05T01:36:56.843Z,98815.78
2022-11-05T01:39:28.452Z,98815.44
2022-11-05T01:42:00.324Z,98812.28
2022-11-05T01:44:55.166Z,98826.13
2022-11-05T01:47:37.970Z,98829.09
2022-11-05T01:50:38.677Z,98834.19
2022-11-05T01:53:21.676Z,98842.75
2022-11-05T01:56:08.670Z,98843.22
2022-11-05T01:58:46.404Z,98844.88
2022-11-05T02:01:18.712Z,98851.78
2022-11-05T02:03:57.879Z,98847.97
2022-11-05T02:06:32.147Z,98852.91
2022-11-05T02:09:08.998Z,98859.47
2022-11-05T02:11:40.637Z,98862.94
2022-11-05T02:14:12.254Z,98860.28
2022-11-05T02:17:05.954Z,98858.47
2022-11-05T02:20:02.415Z,98855.00
2022-11-05T02:22:46.154Z,98857.50
2022-11-05T02:25:55.312Z,98871.00
2022-11-05T02:29:15.885Z,98871.00
2022-11-05T02:32:02.376Z,98874.47
2022-11-05T02:34:45.956Z,98883.34
2022-11-05T02:37:44.574Z,98883.72
2022-11-05T02:40:31.264Z,98883.19
2022-11-05T02:43:27.821Z,98878.09
2022-11-05T02:46:18.226Z,98876.47
2022-11-05T02:48:57.881Z,98871.00
2022-11-05T02:51:46.401Z,98874.94
2022-11-05T02:54:30.881Z,98878.59
2022-11-05T02:57:04.879Z,98874.47
2022-11-05T02:59:36.415Z,98884.84
2022-11-05T03:02:08.283Z,98884.53
2022-11-05T03:04:40.038Z,98889.66
2022-11-05T03:07:22.823Z,98894.72
2022-11-05T03:10:34.826Z,98898.56
2022-11-05T03:13:33.784Z,98903.81
2022-11-05T03:16:41.983Z,98903.47
2022-11-05T03:19:21.895Z,98912.34
2022-11-05T03:21:57.717Z,98914.00
2022-11-05T03:24:35.759Z,98919.94
2022-11-05T03:27:11.730Z,98916.31
2022-11-05T03:29:51.250Z,98924.69
2022-11-05T03:32:24.319Z,98928.97
2022-11-05T03:35:02.180Z,98931.59
2022-11-05T03:37:38.857Z,98945.63
2022-11-05T03:40:12.530Z,98940.66
2022-11-05T03:42:48.199Z,98944.81
2022-11-05T03:45:28.239Z,98946.47
2022-11-05T03:48:02.167Z,98962.94
2022-11-05T03:50:42.197Z,98961.97
2022-11-05T03:53:18.744Z,98972.16
2022-11-05T03:56:18.629Z,98968.53
2022-11-05T03:58:56.038Z,98967.53
2022-11-05T04:01:30.589Z,98963.09
2022-11-05T04:04:02.333Z,98962.91
2022-11-05T04:06:52.508Z,98965.72
2022-11-05T04:09:42.646Z,98971.81
2022-11-05T04:12:32.481Z,98964.91
2022-11-05T04:15:04.348Z,98969.56
2022-11-05T04:17:37.931Z,98969.72
2022-11-05T04:20:28.017Z,98975.81
2022-11-05T04:23:23.522Z,98985.88
2022-11-05T04:25:55.309Z,98994.44
2022-11-05T04:28:46.906Z,98994.44
2022-11-05T04:31:18.499Z,98990.69
2022-11-05T04:33:50.418Z,98995.44
2022-11-05T04:36:22.092Z,99001.53
2022-11-05T04:38:53.714Z,99006.50
2022-11-05T04:41:25.384Z,99003.84
2022-11-05T04:43:56.995Z,99003.50
2022-11-05T04:46:28.735Z,99011.59
2022-11-05T04:49:00.367Z,99015.84
2022-11-05T04:51:31.948Z,99015.84
2022-11-05T04:54:03.676Z,99023.13
2022-11-05T04:56:35.588Z,99021.66
2022-11-05T04:59:07.204Z,99027.91
2022-11-05T05:01:41.976Z,99033.00
2022-11-05T05:04:14.563Z,99028.25
2022-11-05T05:06:46.182Z,99015.59
2022-11-05T05:09:17.821Z,99023.50
2022-11-05T05:11:49.392Z,99019.38
2022-11-05T05:14:21.008Z,99020.03
2022-11-05T05:16:52.583Z,99018.84
2022-11-05T05:19:25.011Z,99006.53
2022-11-05T05:21:56.571Z,99017.09
2022-11-05T05:24:28.175Z,99020.53
2022-11-05T05:26:59.785Z,99026.28
2022-11-05T05:29:31.356Z,99030.41
2022-11-05T05:32:03.065Z,99023.97
2022-11-05T05:34:36.039Z,99034.19
2022-11-05T05:37:07.735Z,99036.34
2022-11-05T05:39:41.331Z,99037.50
2022-11-05T05:42:13.728Z,99037.34
2022-11-05T05:44:47.361Z,99035.38
2022-11-05T05:47:18.982Z,99040.66
2022-11-05T05:49:50.576Z,99042.31
2022-11-05T05:52:26.219Z,99047.38
2022-11-05T05:54:57.899Z,99052.84
2022-11-05T05:57:29.482Z,99061.06
2022-11-05T06:00:01.973Z,99054.34
2022-11-05T06:02:43.414Z,99058.09
2022-11-05T06:05:15.188Z,99063.53
2022-11-05T06:07:46.727Z,99073.91
2022-11-05T06:10:18.402Z,99071.28
2022-11-05T06:12:50.219Z,99074.91
2022-11-05T06:15:21.811Z,99086.41
2022-11-05T06:17:53.437Z,99087.25
2022-11-05T06:20:25.044Z,99089.22
2022-11-05T06:22:59.676Z,99095.81
2022-11-05T06:25:31.286Z,99099.59
2022-11-05T06:28:02.963Z,99109.31
2022-11-05T06:30:34.612Z,99113.75
2022-11-05T06:33:06.223Z,99122.50
2022-11-05T06:35:37.821Z,99125.28
2022-11-05T06:38:09.402Z,99127.75
2022-11-05T06:40:41.134Z,99131.91
2022-11-05T06:43:13.209Z,99140.13
2022-11-05T06:45:45.073Z,99142.25
2022-11-05T06:48:16.643Z,99153.44
2022-11-05T06:50:48.639Z,99153.97
2022-11-05T06:53:20.391Z,99156.25
2022-11-05T06:55:52.237Z,99164.47
2022-11-05T06:58:23.864Z,99168.63
2022-11-05T07:00:59.418Z,99161.84
2022-11-05T07:03:32.827Z,99169.09
2022-11-05T07:06:06.114Z,99169.44
2022-11-05T07:08:38.435Z,99183.59
2022-11-05T07:11:10.068Z,99185.72
2022-11-05T07:13:41.714Z,99189.03
2022-11-05T07:16:13.387Z,99191.16
2022-11-05T07:18:44.995Z,99198.91
2022-11-05T07:21:16.576Z,99201.72
2022-11-05T07:23:48.586Z,99211.13
2022-11-05T07:26:20.294Z,99211.59
2022-11-05T07:28:51.853Z,99219.00
2022-11-05T07:31:23.567Z,99231.22
2022-11-05T07:33:55.146Z,99233.84
2022-11-05T07:36:26.789Z,99234.50
2022-11-05T07:39:00.553Z,99235.00
2022-11-05T07:41:32.380Z,99246.72
2022-11-05T07:44:04.020Z,99251.81
2022-11-05T07:46:35.918Z,99248.84
2022-11-05T07:49:07.485Z,99255.44
2022-11-05T07:51:39.081Z,99259.88
2022-11-05T07:54:10.746Z,99263.50
2022-11-05T07:56:42.343Z,99264.00
2022-11-05T07:59:13.917Z,99266.66
2022-11-05T08:01:45.593Z,99276.38
2022-11-05T08:04:17.240Z,99275.88
2022-11-05T08:06:48.862Z,99273.09
2022-11-05T08:09:20.455Z,99280.16
2022-11-05T08:11:53.091Z,99289.06
2022-11-05T08:14:25.201Z,99288.22
2022-11-05T08:16:58.628Z,99297.00
2022-11-05T08:19:30.251Z,99289.56
2022-11-05T08:22:01.882Z,99289.38
2022-11-05T08:24:33.455Z,99296.00
2022-11-05T08:27:05.144Z,99293.84
2022-11-05T08:29:36.800Z,99289.72
2022-11-05T08:32:08.577Z,99298.94
2022-11-05T08:34:40.132Z,99293.03
2022-11-05T08:37:12.053Z,99295.97
2022-11-05T08:39:43.636Z,99295.97
2022-11-05T08:42:15.281Z,99294.78
2022-11-05T08:44:46.841Z,99301.88
2022-11-05T08:47:18.493Z,99304.50
2022-11-05T08:49:50.138Z,99307.13
2022-11-05T08:52:21.771Z,99297.22
2022-11-05T08:54:53.316Z,99306.47
2022-11-05T08:57:24.960Z,99313.34
2022-11-05T08:59:56.606Z,99311.16
2022-11-05T09:02:28.353Z,99306.97
2022-11-05T09:05:00.032Z,99309.06
2022-11-05T09:07:33.972Z,99312.44
2022-11-05T09:10:06.113Z,99312.06
2022-11-05T09:12:39.809Z,99314.16
2022-11-05T09:15:11.716Z,99313.00
2022-11-05T09:17:43.382Z,99316.47
2022-11-05T09:20:15.143Z,99312.38
2022-11-05T09:22:46.828Z,99317.91
2022-11-05T09:25:18.479Z,99311.34
2022-11-05T09:27:50.090Z,99317.50
2022-11-05T09:30:21.656Z,99319.66
2022-11-05T09:32:54.816Z,99320.72
2022-11-05T09:35:26.379Z,99316.78
2022-11-05T09:38:00.972Z,99316.38
2022-11-05T09:40:55.737Z,99319.75
2022-11-05T09:43:34.556Z,99305.84
2022-11-05T09:46:27.188Z,99306.22
2022-11-05T09:49:04.239Z,99305.22
2022-11-05T09:51:37.148Z,99301.47
2022-11-05T09:54:11.902Z,99301.69
2022-11-05T09:56:44.276Z,99310.81
2022-11-05T09:59:48.673Z,99313.28
2022-11-05T10:02:30.642Z,99320.81
2022-11-05T10:05:10.151Z,99326.13
2022-11-05T10:08:01.783Z,99315.88
2022-11-05T10:10:47.278Z,99313.53
2022-11-05T10:13:25.101Z,99315.91
2022-11-05T10:16:14.690Z,99319.84
2022-11-05T10:18:51.214Z,99317.66
2022-11-05T10:21:44.271Z,99315.22
2022-11-05T10:24:27.997Z,99324.28
2022-11-05T10:27:00.113Z,99328.09
2022-11-05T10:29:34.365Z,99338.34
2022-11-05T10:32:09.538Z,99334.50
2022-11-05T10:34:42.490Z,99324.06
2022-11-05T10:37:14.213Z,99334.31
2022-11-05T10:39:45.830Z,99338.16
2022-11-05T10:42:20.284Z,99343.06
2022-11-05T10:45:03.641Z,99347.97
2022-11-05T10:48:13.641Z,99343.88
2022-11-05T10:50:45.923Z,99351.47
2022-11-05T10:53:22.075Z,99352.06
2022-11-05T10:55:54.906Z,99356.16
2022-11-05T10:58:35.466Z,99358.84
2022-11-05T11:01:12.109Z,99361.41
2022-11-05T11:03:51.401Z,99364.22
2022-11-05T11:06:32.166Z,99366.66
2022-11-05T11:09:10.470Z,99371.66
2022-11-05T11:11:42.870Z,99376.63
2022-11-05T11:14:16.529Z,99381.94
2022-11-05T11:16:51.269Z,99377.72
2022-11-05T11:19:31.851Z,99379.81
2022-11-05T11:22:03.387Z,99374.25
2022-11-05T11:24:46.977Z,99381.84
2022-11-05T11:27:23.893Z,99389.84
2022-11-05T11:30:04.423Z,99384.50
2022-11-05T11:32:39.128Z,99387.19
2022-11-05T11:35:25.008Z,99390.13
2022-11-05T11:38:00.844Z,99383.03
2022-11-05T11:40:36.159Z,99387.44
2022-11-05T11:43:28.179Z,99390.84
2022-11-05T11:46:05.398Z,99388.41
2022-11-05T11:48:40.871Z,99385.22
2022-11-05T11:51:34.267Z,99395.63
2022-11-05T11:54:17.879Z,99389.13
2022-11-05T11:56:49.611Z,99382.28
2022-11-05T11:59:53.907Z,99382.38
2022-11-05T12:02:43.336Z,99379.03
2022-11-05T12:05:39.873Z,99389.53
2022-11-05T12:08:45.577Z,99391.16
2022-11-05T12:11:29.494Z,99389.34
2022-11-05T12:14:46.404Z,99394.19
2022-11-05T12:17:39.871Z,99391.59
2022-11-05T12:20:14.430Z,99380.66
2022-11-05T12:22:54.487Z,99381.94
2022-11-05T12:25:36.292Z,99386.59
2022-11-05T12:28:10.798Z,99376.69
2022-11-05T12:31:19.766Z,99379.03
2022-11-05T12:33:56.203Z,99384.16
2022-11-05T12:36:59.679Z,99387.09
2022-11-05T12:39:48.411Z,99395.03
2022-11-05T12:42:28.981Z,99395.44
2022-11-05T12:45:12.404Z,99390.47
2022-11-05T12:47:57.367Z,99401.75
2022-11-05T12:50:36.043Z,99402.63
2022-11-05T12:53:35.209Z,99412.44
2022-11-05T12:56:18.681Z,99414.97
2022-11-05T12:59:21.202Z,99413.16
2022-11-05T13:02:03.073Z,99415.72
2022-11-05T13:04:40.618Z,99410.56
2022-11-05T13:07:16.849Z,99420.25
2022-11-05T13:10:01.199Z,99424.47
2022-11-05T13:12:37.080Z,99420.19
2022-11-05T13:15:33.707Z,99426.50
2022-11-05T13:18:13.393Z,99431.81
2022-11-05T13:20:50.378Z,99430.25
2022-11-05T13:23:34.184Z,99437.03
2022-11-05T13:26:16.974Z,99446.34
2022-11-05T13:28:58.249Z,99439.84
2022-11-05T13:31:43.517Z,99439.53
2022-11-05T13:34:15.098Z,99436.47
2022-11-05T13:37:19.463Z,99441.16
2022-11-05T13:39:56.114Z,99441.16
2022-11-05T13:42:36.783Z,99441.59
2022-11-05T13:45:30.895Z,99444.19
2022-11-05T13:48:20.894Z,99448.81
2022-11-05T13:51:10.685Z,99450.13
2022-11-05T13:54:19.757Z,99444.88
2022-11-05T13:57:29.795Z,99445.44
2022-11-05T14:00:21.176Z,99444.06
2022-11-05T14:03:16.006Z,99440.94
2022-11-05T14:06:05.538Z,99433.63
2022-11-05T14:08:41.659Z,99436.03
2022-11-05T14:11:22.265Z,99438.63
2022-11-05T14:14:01.420Z,99436.69
2022-11-05T14:17:08.294Z,99443.66
2022-11-05T14:20:04.375Z,99445.28
2022-11-05T14:22:40.161Z,99450.84
2022-11-05T14:25:17.690Z,99438.75
2022-11-05T14:27:56.260Z,99436.38
2022-11-05T14:30:47.244Z,99439.91
2022-11-05T14:33:24.887Z,99446.97
2022-11-05T14:36:21.249Z,99452.47
2022-11-05T14:38:58.865Z,99463.06
2022-11-05T14:41:56.955Z,99454.56
2022-11-05T14:44:34.476Z,99470.16
2022-11-05T14:47:21.504Z,99467.84
2022-11-05T14:49:58.847Z,99471.84
2022-11-05T14:52:37.359Z,99468.25
2022-11-05T14:55:38.572Z,99476.59
2022-11-05T14:58:19.220Z,99478.94
2022-11-05T15:00:51.086Z,99479.78
2022-11-05T15:03:36.902Z,99484.78
2022-11-05T15:06:48.903Z,99489.25
2022-11-05T15:09:29.511Z,99497.00
2022-11-05T15:12:09.129Z,99494.16
2022-11-05T15:14:55.592Z,99502.13
2022-11-05T15:17:40.799Z,99501.47
2022-11-05T15:20:22.105Z,99503.63
2022-11-05T15:22:59.615Z,99501.34
2022-11-05T15:25:52.770Z,99507.78
2022-11-05T15:28:51.836Z,99505.31
2022-11-05T15:31:41.118Z,99515.59
2022-11-05T15:34:16.284Z,99514.44
2022-11-05T15:36:51.303Z,99513.28
2022-11-05T15:39:42.033Z,99510.50
2022-11-05T15:42:19.600Z,99513.38
2022-11-05T15:44:55.881Z,99515.19
2022-11-05T15:47:34.632Z,99522.19
2022-11-05T15:50:15.376Z,99522.19
2022-11-05T15:52:53.817Z,99522.53
2022-11-05T15:55:28.222Z,99526.69
2022-11-05T15:58:04.513Z,99528.69
2022-11-05T16:00:37.162Z,99526.88
2022-11-05T16:03:29.283Z,99537.44
2022-11-05T16:06:02.178Z,99545.38
2022-11-05T16:08:34.631Z,99550.47
2022-11-05T16:11:06.248Z,99550.47
2022-11-05T16:13:41.602Z,99545.53
2022-11-05T16:16:15.878Z,99548.16
2022-11-05T16:18:50.672Z,99550.59
2022-11-05T16:21:25.360Z,99552.25
2022-11-05T16:23:59.699Z,99557.19
2022-11-05T16:29:37.846Z,99557.94
2022-11-05T16:32:18.629Z,99565.97
2022-11-05T16:34:59.439Z,99571.88
2022-11-05T16:37:40.972Z,99571.72
2022-11-05T16:40:24.106Z,99576.63
2022-11-05T16:43:08.587Z,99578.75
2022-11-05T16:45:41.466Z,99580.22
2022-11-05T16:48:15.807Z,99583.34
2022-11-05T16:50:47.576Z,99586.28
2022-11-05T16:53:19.208Z,99587.44
2022-11-05T16:55:53.699Z,99579.31
2022-11-05T16:58:26.752Z,99594.59
2022-11-05T17:01:10.539Z,99595.09
2022-11-05T17:03:42.438Z,99591.25
2022-11-05T17:06:15.877Z,99588.28
2022-11-05T17:08:48.339Z,99590.41
2022-11-05T17:11:21.228Z,99595.75
2022-11-05T17:13:52.879Z,99596.22
2022-11-05T17:16:28.133Z,99608.22
2022-11-05T17:18:59.727Z,99611.00
2022-11-05T17:21:31.296Z,99609.31
2022-11-05T17:24:03.238Z,99605.22
2022-11-05T17:26:34.887Z,99604.00
2022-11-05T17:29:06.478Z,99608.91
2022-11-05T17:31:40.085Z,99612.69
2022-11-05T17:34:11.682Z,99618.91
2022-11-05T17:36:43.260Z,99622.00
2022-11-05T17:39:14.941Z,99622.47
2022-11-05T17:41:47.843Z,99626.53
2022-11-05T17:44:19.443Z,99630.16
2022-11-05T17:46:51.212Z,99634.06
2022-11-05T17:49:22.848Z,99627.97
2022-11-05T17:51:54.431Z,99644.75
2022-11-05T17:54:26.067Z,99645.19
2022-11-05T17:56:57.642Z,99646.31
2022-11-05T17:59:29.883Z,99650.91
2022-11-05T18:02:01.911Z,99655.50
2022-11-05T18:04:33.830Z,99664.38
2022-11-05T18:07:06.119Z,99670.75
2022-11-05T18:09:37.832Z,99666.63
2022-11-05T18:12:09.434Z,99672.16
2022-11-05T18:14:41.079Z,99673.47
2022-11-05T18:17:14.300Z,99678.03
2022-11-05T18:19:45.909Z,99681.81
2022-11-05T18:22:19.427Z,99685.69
2022-11-05T18:24:51.110Z,99682.66
2022-11-05T18:27:27.630Z,99688.22
2022-11-05T18:29:59.433Z,99691.00
2022-11-05T18:32:30.992Z,99688.78
2022-11-05T18:35:02.818Z,99688.41
2022-11-05T18:37:34.470Z,99684.25
2022-11-05T18:40:07.570Z,99691.44
2022-11-05T18:42:39.586Z,99698.66
2022-11-05T18:45:12.793Z,99707.53
2022-11-05T18:47:44.461Z,99691.06
2022-11-05T18:50:16.288Z,99694.50
2022-11-05T18:52:50.378Z,99699.25
2022-11-05T18:55:22.598Z,99697.19
2022-11-05T18:57:54.234Z,99706.19
2022-11-05T19:00:25.840Z,99697.78
2022-11-05T19:02:58.011Z,99705.94
2022-11-05T19:05:30.588Z,99704.44
2022-11-05T19:08:02.289Z,99715.22
2022-11-05T19:10:33.978Z,99714.38
2022-11-05T19:13:06.017Z,99716.50
2022-11-05T19:15:42.459Z,99722.72
2022-11-05T19:18:14.649Z,99722.84
2022-11-05T19:20:46.479Z,99726.47
2022-11-05T19:23:21.004Z,99729.09
2022-11-05T19:25:52.617Z,99733.81
2022-11-05T19:28:24.236Z,99742.00
2022-11-05T19:30:55.874Z,99742.25
2022-11-05T19:33:27.919Z,99739.91
2022-11-05T19:36:05.695Z,99744.34
2022-11-05T19:38:37.833Z,99746.41
2022-11-05T19:41:14.166Z,99738.81
2022-11-05T19:43:45.992Z,99749.47
2022-11-05T19:46:19.446Z,99746.16
2022-11-05T19:48:51.820Z,99746.44
2022-11-05T19:51:26.028Z,99751.97
2022-11-05T19:54:00.503Z,99755.56
2022-11-05T19:56:34.356Z,99755.16
2022-11-05T19:59:07.044Z,99748.50
2022-11-05T20:01:39.046Z,99755.72
2022-11-05T20:04:11.967Z,99750.72
2022-11-05T20:06:43.690Z,99754.47
2022-11-05T20:09:21.684Z,99757.22
2022-11-05T20:11:56.389Z,99758.19
2022-11-05T20:14:28.293Z,99748.78
2022-11-05T20:17:00.173Z,99758.31
2022-11-05T20:19:32.125Z,99756.00
2022-11-05T20:22:03.975Z,99757.09
2022-11-05T20:24:35.630Z,99756.25
2022-11-05T20:27:07.539Z,99761.78
2022-11-05T20:29:39.187Z,99764.69
2022-11-05T20:32:12.621Z,99770.75
2022-11-05T20:34:44.611Z,99765.50
2022-11-05T20:37:19.232Z,99768.56
2022-11-05T20:39:50.803Z,99772.84
2022-11-05T20:42:22.476Z,99764.41
2022-11-05T20:44:54.103Z,99766.47
2022-11-05T20:47:25.843Z,99767.44
2022-11-05T20:50:01.293Z,99760.50
2022-11-05T20:52:33.798Z,99766.75
2022-11-05T20:55:09.008Z,99764.25
2022-11-05T20:57:40.805Z,99767.16
2022-11-05T21:00:13.351Z,99769.94
2022-11-05T21:02:45.135Z,99769.22
2022-11-05T21:05:16.783Z,99770.19
2022-11-05T21:07:48.369Z,99774.59
2022-11-05T21:10:20.029Z,99768.81
2022-11-05T21:12:51.696Z,99776.09
2022-11-05T21:15:24.293Z,99777.94
2022-11-05T21:17:55.839Z,99776.38
2022-11-05T21:20:27.492Z,99779.97
2022-11-05T21:22:59.053Z,99776.78
2022-11-05T21:25:30.574Z,99783.00
2022-11-05T21:28:02.209Z,99781.34
2022-11-05T21:30:36.631Z,99776.09
2022-11-05T21:33:08.928Z,99776.09
2022-11-05T21:35:44.042Z,99765.88
2022-11-05T21:38:17.387Z,99765.16
2022-11-05T21:40:49.116Z,99775.91
2022-11-05T21:43:20.797Z,99776.19
2022-11-05T21:45:52.433Z,99771.19
2022-11-05T21:48:24.059Z,99774.81
2022-11-05T21:51:14.559Z,99773.81
2022-11-05T21:54:05.109Z,99778.28
2022-11-05T21:56:55.068Z,99767.31
2022-11-05T21:59:45.260Z,99772.84
2022-11-05T22:02:20.023Z,99771.31
2022-11-05T22:04:54.052Z,99764.94
2022-11-05T22:07:28.901Z,99768.66
2022-11-05T22:10:00.795Z,99775.69
2022-11-05T22:12:32.539Z,99769.63
2022-11-05T22:15:05.361Z,99776.66
2022-11-05T22:17:37.023Z,99772.38
2022-11-05T22:20:09.087Z,99766.16
2022-11-05T22:22:43.992Z,99771.41
2022-11-05T22:25:16.270Z,99766.31
2022-11-05T22:27:47.860Z,99768.94
2022-11-05T22:30:19.575Z,99769.31
2022-11-05T22:32:51.080Z,99767.63
2022-11-05T22:35:23.901Z,99773.03
2022-11-05T22:37:55.486Z,99773.44
2022-11-05T22:40:27.037Z,99774.41
2022-11-05T22:42:58.590Z,99772.59
2022-11-05T22:45:30.312Z,99771.91
2022-11-05T22:48:06.480Z,99767.50
2022-11-05T22:50:38.655Z,99774.78
2022-11-05T22:53:10.223Z,99783.47
2022-11-05T22:55:41.808Z,99776.72
2022-11-05T22:58:13.712Z,99782.19
2022-11-05T23:00:45.495Z,99782.03
2022-11-05T23:03:20.213Z,99794.84
2022-11-05T23:05:58.369Z,99792.84
2022-11-05T23:08:49.728Z,99793.34
2022-11-05T23:11:36.001Z,99796.94
2022-11-05T23:14:09.579Z,99787.91
2022-11-05T23:17:00.650Z,99794.84
2022-11-05T23:19:51.128Z,99794.28
2022-11-05T23:22:44.832Z,99801.56
2022-11-05T23:25:19.749Z,99797.28
2022-11-05T23:27:53.556Z,99800.28
2022-11-05T23:30:27.190Z,99795.28
2022-11-05T23:32:59.520Z,99795.53
2022-11-05T23:35:49.559Z,99794.84
2022-11-05T23:38:36.054Z,99794.84
2022-11-05T23:41:26.243Z,99804.38
2022-11-05T23:44:16.492Z,99800.09
2022-11-05T23:47:06.606Z,99797.47
2022-11-05T23:49:38.110Z,99795.81
2022-11-05T23:52:09.629Z,99797.84
2022-11-05T23:54:41.217Z,99793.69
2022-11-05T23:57:12.790Z,99791.19
2022-11-05T23:59:44.375Z,99793.91
